Time;durP1;ratioP1;P1;durP2;ratioP2;P2;SDS_P1;SDS_P2;PMS_P1;PMS_P2;Temp;Humidity;BMP_temperature;BMP_pressure;BME280_temperature;BME280_humidity;BME280_pressure;Samples;Min_cycle;Max_cycle;Signal;HPM_P1;HPM_P2
2022/10/29 15:55:06;;;;;;;14.95;4.60;;;20.30;84.60;;;;;;5226957;27;20362;-71
2022/10/29 15:57:42;;;;;;;15.77;4.47;;;19.60;84.20;;;;;;5201614;27;20047;-71
2022/10/29 16:00:21;;;;;;;16.65;4.10;;;19.50;85.20;;;;;;5136632;28;149479;-71
2022/10/29 16:02:59;;;;;;;19.55;4.38;;;19.40;84.80;;;;;;5184099;28;20636;-70
2022/10/29 16:05:32;;;;;;;16.27;4.18;;;19.40;83.80;;;;;;5170306;28;20049;-69
2022/10/29 16:08:04;;;;;;;12.15;3.70;;;19.30;82.80;;;;;;5196703;28;20058;-69
2022/10/29 16:10:37;;;;;;;17.33;4.30;;;19.20;84.00;;;;;;5183163;28;20056;-69
2022/10/29 16:13:10;;;;;;;28.33;4.43;;;19.20;82.70;;;;;;5180130;28;20049;-68
2022/10/29 16:15:43;;;;;;;11.85;4.05;;;19.20;82.50;;;;;;5176382;28;21299;-71
2022/10/29 16:18:15;;;;;;;11.97;4.07;;;19.10;84.60;;;;;;5175196;28;20060;-71
2022/10/29 16:20:50;;;;;;;20.38;4.80;;;19.00;84.20;;;;;;5179290;28;20299;-71
2022/10/29 16:23:23;;;;;;;25.55;5.43;;;19.10;84.40;;;;;;5174222;28;20833;-71
2022/10/29 16:25:55;;;;;;;16.65;4.00;;;19.00;85.90;;;;;;5163082;28;20045;-71
2022/10/29 16:28:28;;;;;;;24.23;4.70;;;18.90;87.50;;;;;;5181915;28;20820;-71
2022/10/29 16:31:01;;;;;;;16.25;5.00;;;18.80;88.20;;;;;;5176509;28;20518;-71
2022/10/29 16:33:33;;;;;;;15.83;5.27;;;18.80;87.40;;;;;;5168467;28;20050;-71
2022/10/29 16:36:07;;;;;;;10.80;4.53;;;18.70;88.10;;;;;;5159070;28;20331;-71
2022/10/29 16:38:40;;;;;;;32.88;5.78;;;18.60;89.50;;;;;;5173996;28;20061;-71
2022/10/29 16:41:14;;;;;;;18.55;4.75;;;18.50;89.70;;;;;;5168726;28;20049;-71
2022/10/29 16:43:47;;;;;;;11.98;4.38;;;18.40;90.20;;;;;;4485941;28;10000191;-71
2022/10/29 16:46:19;;;;;;;18.03;4.90;;;18.30;89.40;;;;;;5170473;28;20049;-71
2022/10/29 16:48:52;;;;;;;24.92;5.55;;;18.20;90.40;;;;;;5171378;28;20064;-71
2022/10/29 16:51:24;;;;;;;18.88;4.32;;;18.20;90.10;;;;;;5191426;28;20056;-71
2022/10/29 16:53:57;;;;;;;15.68;4.55;;;18.20;91.20;;;;;;5185403;28;20057;-71
2022/10/29 16:56:29;;;;;;;20.33;5.55;;;18.00;91.50;;;;;;5184678;28;20159;-71
2022/10/29 16:59:01;;;;;;;28.52;10.75;;;18.00;91.70;;;;;;5184665;28;20053;-71
2022/10/29 17:01:34;;;;;;;20.88;5.85;;;17.90;91.90;;;;;;5172932;28;20045;-71
2022/10/29 17:04:08;;;;;;;21.52;8.00;;;17.80;93.50;;;;;;5164942;28;20439;-70
2022/10/29 17:06:40;;;;;;;23.95;9.00;;;17.80;94.30;;;;;;5175016;28;20053;-71
2022/10/29 17:09:13;;;;;;;19.38;6.65;;;17.70;95.00;;;;;;5160790;28;20068;-71
2022/10/29 17:11:45;;;;;;;23.60;6.43;;;17.60;95.60;;;;;;5167828;28;20800;-71
2022/10/29 17:14:18;;;;;;;19.45;5.32;;;17.40;96.50;;;;;;5177469;28;20049;-71
2022/10/29 17:16:50;;;;;;;22.73;5.93;;;;;;;;;;5170860;28;20056;-71
2022/10/29 17:19:23;;;;;;;18.10;5.30;;;;;;;;;;5151305;28;20060;-71
2022/10/29 17:21:58;;;;;;;22.38;6.15;;;17.40;97.70;;;;;;5163919;28;20127;-71
2022/10/29 17:24:31;;;;;;;14.63;5.18;;;17.10;99.90;;;;;;5129788;28;20618;-71
2022/10/29 17:27:03;;;;;;;28.65;6.05;;;17.00;99.90;;;;;;5149193;28;20045;-71
2022/10/29 17:29:36;;;;;;;22.02;6.90;;;16.90;99.90;;;;;;5171270;28;20041;-71
2022/10/29 17:32:09;;;;;;;16.73;6.03;;;16.90;99.90;;;;;;5167064;28;20057;-71
2022/10/29 17:34:41;;;;;;;27.13;7.10;;;16.80;99.90;;;;;;5159871;28;20597;-71
2022/10/29 17:37:14;;;;;;;18.17;7.82;;;16.70;99.90;;;;;;5143821;28;20041;-71
2022/10/29 17:39:46;;;;;;;20.73;6.35;;;16.70;99.90;;;;;;5157570;28;20057;-71
2022/10/29 17:42:19;;;;;;;17.40;6.68;;;16.60;99.90;;;;;;5161280;28;20041;-71
2022/10/29 17:44:51;;;;;;;23.88;7.07;;;16.60;99.90;;;;;;5147318;28;20054;-71
2022/10/29 17:47:24;;;;;;;24.75;7.25;;;16.50;99.90;;;;;;5157766;28;20041;-71
2022/10/29 17:49:57;;;;;;;23.67;6.43;;;16.50;99.90;;;;;;5175076;28;20057;-71
2022/10/29 17:52:29;;;;;;;20.67;6.82;;;16.40;99.90;;;;;;5147997;28;20061;-71
2022/10/29 17:55:02;;;;;;;25.65;7.22;;;16.30;99.90;;;;;;5148364;28;20064;-71
2022/10/29 17:57:34;;;;;;;25.25;6.35;;;16.30;99.90;;;;;;5164224;28;20057;-71
2022/10/29 18:00:07;;;;;;;18.38;6.40;;;16.20;99.90;;;;;;5142348;28;20789;-71
2022/10/29 18:02:40;;;;;;;17.88;6.65;;;16.10;99.90;;;;;;5158966;28;20050;-70
2022/10/29 18:05:13;;;;;;;22.90;6.57;;;16.10;99.90;;;;;;5165879;28;20371;-71
2022/10/29 18:07:45;;;;;;;22.23;6.28;;;16.10;99.90;;;;;;5157719;28;20052;-70
2022/10/29 18:16:52;;;;;;;14.48;6.00;;;16.00;99.90;;;;;;7256842;19;115450;-71
2022/10/29 18:21:14;;;;;;;17.08;5.95;;;16.00;99.90;;;;;;6485506;19;121993;-71
2022/10/29 18:23:47;;;;;;;18.23;6.75;;;16.00;99.90;;;;;;7006225;19;2005551;-71
2022/10/29 18:26:25;;;;;;;20.88;6.47;;;16.00;99.90;;;;;;7619388;19;20722;-70
2022/10/29 18:29:00;;;;;;;20.80;6.63;;;15.90;99.90;;;;;;7571800;19;20014;-70
2022/10/29 18:31:32;;;;;;;21.15;6.28;;;15.80;99.90;;;;;;7588343;19;20016;-70
2022/10/29 18:34:06;;;;;;;20.75;6.72;;;15.80;99.90;;;;;;7624593;19;20131;-70
2022/10/29 18:36:40;;;;;;;21.55;7.20;;;15.70;99.90;;;;;;7598473;19;20537;-70
2022/10/29 18:39:12;;;;;;;19.33;6.70;;;15.70;99.90;;;;;;7596759;19;21049;-70
2022/10/29 18:41:44;;;;;;;22.48;7.03;;;15.60;99.90;;;;;;7598221;19;20014;-70
2022/10/29 18:44:17;;;;;;;20.15;7.22;;;15.50;99.90;;;;;;7583527;19;20014;-70
2022/10/29 18:46:49;;;;;;;25.70;7.35;;;15.40;99.90;;;;;;7574407;19;20022;-70
2022/10/29 18:49:22;;;;;;;25.80;8.35;;;15.40;99.90;;;;;;7426463;19;20006;-69
2022/10/29 18:51:54;;;;;;;19.23;6.93;;;15.40;99.90;;;;;;7584603;19;20542;-69
2022/10/29 18:54:27;;;;;;;21.40;7.32;;;15.40;99.90;;;;;;7603977;19;21049;-69
2022/10/29 18:56:59;;;;;;;22.20;6.82;;;15.40;99.90;;;;;;7621842;19;20029;-74
2022/10/29 18:59:31;;;;;;;21.52;7.55;;;15.30;99.90;;;;;;7596028;19;20018;-70
2022/10/29 19:02:03;;;;;;;19.23;7.32;;;15.20;99.90;;;;;;7618851;19;20836;-70
2022/10/29 19:04:35;;;;;;;25.80;6.97;;;15.10;99.90;;;;;;7601518;19;20010;-70
2022/10/29 19:07:07;;;;;;;16.83;7.05;;;15.10;99.90;;;;;;7631578;19;20060;-70
2022/10/29 19:09:39;;;;;;;22.63;6.50;;;15.00;99.90;;;;;;7610881;19;20019;-70
2022/10/29 19:12:12;;;;;;;21.33;7.00;;;15.00;99.90;;;;;;7609144;19;20018;-70
2022/10/29 19:14:44;;;;;;;13.02;6.35;;;15.00;99.90;;;;;;7636222;19;21037;-69
2022/10/29 19:17:17;;;;;;;17.20;7.78;;;14.90;99.90;;;;;;7615808;19;20674;-69
2022/10/29 19:19:49;;;;;;;18.50;7.20;;;14.80;99.90;;;;;;7619663;19;20029;-70
2022/10/29 19:22:21;;;;;;;21.23;7.25;;;14.80;99.90;;;;;;7626371;19;20013;-70
2022/10/29 19:24:54;;;;;;;17.02;6.70;;;14.70;99.90;;;;;;7619458;19;20033;-70
2022/10/29 19:27:26;;;;;;;21.73;6.90;;;14.70;99.90;;;;;;7620339;19;20021;-70
2022/10/29 19:29:58;;;;;;;23.58;6.60;;;14.70;99.90;;;;;;7604510;19;20067;-70
2022/10/29 19:32:30;;;;;;;17.95;6.78;;;14.60;99.90;;;;;;7575343;19;20892;-71
2022/10/29 19:35:03;;;;;;;14.13;5.72;;;14.60;99.90;;;;;;7573147;19;20022;-70
2022/10/29 19:37:35;;;;;;;22.83;6.40;;;14.50;99.90;;;;;;7581406;19;20051;-70
2022/10/29 19:40:08;;;;;;;20.05;6.45;;;14.60;99.90;;;;;;7564461;19;20023;-70
2022/10/29 19:42:40;;;;;;;25.58;7.70;;;14.50;99.90;;;;;;7579187;19;20962;-70
2022/10/29 19:45:12;;;;;;;22.65;8.35;;;14.50;99.90;;;;;;7595387;19;20021;-70
2022/10/29 19:47:44;;;;;;;20.38;8.25;;;14.60;99.90;;;;;;7603036;19;20018;-70
2022/10/29 19:50:17;;;;;;;17.92;7.55;;;14.70;99.90;;;;;;7602963;19;20010;-70
2022/10/29 19:52:49;;;;;;;24.13;8.77;;;14.50;99.90;;;;;;7586417;19;21075;-70
2022/10/29 19:55:21;;;;;;;24.73;8.65;;;14.40;99.90;;;;;;7587750;19;20021;-70
2022/10/29 19:57:53;;;;;;;17.23;8.13;;;14.40;99.90;;;;;;7585908;19;20021;-70
2022/10/29 20:00:25;;;;;;;20.50;8.25;;;14.40;99.90;;;;;;7594552;19;20024;-70
2022/10/29 20:02:58;;;;;;;18.77;7.95;;;14.40;99.90;;;;;;7596749;19;20864;-70
2022/10/29 20:05:31;;;;;;;23.10;8.18;;;14.50;99.90;;;;;;7566249;19;20788;-70
2022/10/29 20:08:23;;;;;;;25.35;9.02;;;14.30;99.90;;;;;;7581062;19;20021;-70
2022/10/29 20:10:56;;;;;;;22.58;9.50;;;14.20;99.90;;;;;;7577763;19;20830;-70
2022/10/29 20:13:28;;;;;;;;;;;14.20;99.90;;;;;;7576343;19;20383;-71
2022/10/29 20:16:10;;;;;;;20.45;7.97;;;14.20;99.90;;;;;;7587400;19;19907;-71
2022/10/29 20:20:27;;;;;;;27.75;9.10;;;14.20;99.90;;;;;;7626772;19;21392;-70
2022/10/29 20:22:59;;;;;;;21.42;9.68;;;14.20;99.90;;;;;;7637375;19;20050;-70
2022/10/29 20:25:32;;;;;;;20.25;9.18;;;14.20;99.90;;;;;;7630857;19;20037;-70
2022/10/29 20:28:04;;;;;;;25.17;9.80;;;14.20;99.90;;;;;;7624039;19;20022;-70
2022/10/29 20:30:36;;;;;;;25.10;8.93;;;14.20;99.90;;;;;;7614815;19;20494;-70
2022/10/29 20:33:09;;;;;;;25.80;9.00;;;14.10;99.90;;;;;;7615207;19;20081;-69
2022/10/29 20:35:41;;;;;;;26.45;9.68;;;14.10;99.90;;;;;;7628800;19;20034;-72
2022/10/29 20:38:13;;;;;;;25.15;8.90;;;14.00;99.90;;;;;;7630382;19;20018;-69
2022/10/29 20:40:49;;;;;;;24.85;10.27;;;14.10;99.90;;;;;;7638263;19;20650;-70
2022/10/29 20:43:21;;;;;;;24.50;9.48;;;14.30;99.90;;;;;;7625320;19;20874;-70
2022/10/29 20:46:01;;;;;;;30.13;8.88;;;14.30;99.90;;;;;;7626726;19;20018;-69
2022/10/29 20:48:35;;;;;;;26.17;8.07;;;14.30;99.90;;;;;;7617572;19;20823;-70
2022/10/29 20:51:07;;;;;;;19.40;8.07;;;14.30;99.90;;;;;;7619023;19;20034;-69
2022/10/29 20:53:39;;;;;;;19.25;9.50;;;14.30;99.90;;;;;;7639149;19;20014;-69
2022/10/29 20:56:11;;;;;;;28.00;9.18;;;14.30;99.90;;;;;;7582077;19;20038;-71
2022/10/29 20:58:47;;;;;;;20.88;9.65;;;14.30;99.90;;;;;;7617165;19;20021;-71
2022/10/29 21:01:22;;;;;;;21.40;9.25;;;14.30;99.90;;;;;;7602456;19;22297;-71
2022/10/29 21:03:55;;;;;;;24.58;10.10;;;14.20;99.90;;;;;;7615035;19;20501;-71
2022/10/29 21:06:28;;;;;;;29.15;10.38;;;14.10;99.90;;;;;;7629588;19;20379;-71
2022/10/29 21:09:01;;;;;;;23.80;10.98;;;13.90;99.90;;;;;;7641861;19;20021;-71
2022/10/29 21:11:34;;;;;;;23.00;11.00;;;13.90;99.90;;;;;;7639729;19;20026;-71
2022/10/29 21:14:07;;;;;;;21.63;11.15;;;13.90;99.90;;;;;;7641545;19;20026;-71
2022/10/29 21:16:39;;;;;;;23.83;11.38;;;13.90;99.90;;;;;;7646429;19;20014;-71
2022/10/29 21:19:11;;;;;;;24.35;11.05;;;13.90;99.90;;;;;;7646171;19;20018;-71
2022/10/29 21:21:43;;;;;;;19.98;9.77;;;13.80;99.90;;;;;;7647476;19;20014;-71
2022/10/29 21:24:16;;;;;;;23.83;10.00;;;13.70;99.90;;;;;;7643775;19;20034;-71
2022/10/29 21:26:49;;;;;;;21.85;9.68;;;13.70;99.90;;;;;;7635105;19;20018;-71
2022/10/29 21:29:20;;;;;;;20.75;9.43;;;13.70;99.90;;;;;;7646809;19;20049;-71
2022/10/29 21:31:52;;;;;;;28.42;9.57;;;13.70;99.90;;;;;;7610116;19;20021;-70
2022/10/29 21:34:24;;;;;;;21.92;8.38;;;13.60;99.90;;;;;;7615026;19;20015;-71
2022/10/29 21:36:57;;;;;;;21.77;8.25;;;13.50;99.90;;;;;;7614805;19;20019;-71
2022/10/29 21:39:29;;;;;;;23.73;7.60;;;13.50;99.90;;;;;;7603073;19;21089;-71
2022/10/29 21:42:01;;;;;;;21.70;6.65;;;13.50;99.90;;;;;;7612090;19;20054;-71
2022/10/29 21:44:33;;;;;;;18.42;7.28;;;13.40;99.90;;;;;;7613955;19;20018;-72
2022/10/29 21:47:05;;;;;;;20.45;6.47;;;13.40;99.90;;;;;;7613550;19;21492;-71
2022/10/29 21:49:37;;;;;;;18.05;6.85;;;13.40;99.90;;;;;;7611322;19;20019;-71
2022/10/29 21:52:09;;;;;;;22.40;7.43;;;13.40;99.90;;;;;;7614734;19;20021;-70
2022/10/29 21:54:41;;;;;;;23.05;6.78;;;13.30;99.90;;;;;;7613129;19;20022;-71
2022/10/29 21:57:13;;;;;;;27.02;6.70;;;13.30;99.90;;;;;;7614745;19;20029;-70
2022/10/29 21:59:46;;;;;;;22.13;6.47;;;13.20;99.90;;;;;;7615963;19;20093;-71
2022/10/29 22:02:18;;;;;;;16.75;6.18;;;13.20;99.90;;;;;;7613383;19;20033;-70
2022/10/29 22:04:50;;;;;;;20.42;6.57;;;13.20;99.90;;;;;;7614299;19;20018;-70
2022/10/29 22:07:22;;;;;;;23.95;7.35;;;13.20;99.90;;;;;;7599565;19;20006;-70
2022/10/29 22:09:55;;;;;;;22.08;6.85;;;13.10;99.90;;;;;;6590036;19;10000334;-70
2022/10/29 22:12:27;;;;;;;17.85;7.28;;;13.10;99.90;;;;;;7609392;19;20645;-70
2022/10/29 22:14:59;;;;;;;20.25;6.47;;;13.00;99.90;;;;;;7600583;19;20030;-71
2022/10/29 22:17:31;;;;;;;26.70;6.53;;;13.00;99.90;;;;;;7613982;19;20039;-71
2022/10/29 22:20:04;;;;;;;18.15;6.13;;;13.10;99.90;;;;;;7614544;19;20090;-70
2022/10/29 22:22:36;;;;;;;24.35;6.53;;;13.00;99.90;;;;;;7615612;19;20043;-71
2022/10/29 22:25:09;;;;;;;19.20;6.38;;;13.00;99.90;;;;;;7609291;19;20018;-70
2022/10/29 22:27:41;;;;;;;20.40;6.60;;;13.00;99.90;;;;;;7615305;19;20018;-70
2022/10/29 22:30:13;;;;;;;18.15;6.75;;;13.00;99.90;;;;;;7606304;19;20022;-70
2022/10/29 22:32:45;;;;;;;21.25;6.60;;;12.90;99.90;;;;;;7613360;19;20026;-71
2022/10/29 22:35:17;;;;;;;17.88;6.05;;;12.90;99.90;;;;;;7607907;19;20026;-70
2022/10/29 22:37:51;;;;;;;16.83;6.43;;;12.90;99.90;;;;;;7612288;19;20022;-70
2022/10/29 22:40:24;;;;;;;28.08;6.75;;;12.90;99.90;;;;;;7602097;19;20503;-70
2022/10/29 22:42:55;;;;;;;16.15;6.50;;;12.90;99.90;;;;;;7607316;19;20371;-70
2022/10/29 22:45:28;;;;;;;28.95;7.45;;;12.80;99.90;;;;;;7605015;19;20025;-70
2022/10/29 22:48:00;;;;;;;24.20;6.07;;;12.80;99.90;;;;;;7603542;19;20014;-71
2022/10/29 22:50:33;;;;;;;21.10;6.25;;;12.80;99.90;;;;;;7598694;19;20011;-70
2022/10/29 22:53:05;;;;;;;22.65;6.53;;;12.80;99.90;;;;;;7597792;19;20640;-70
2022/10/29 22:55:37;;;;;;;21.83;7.13;;;12.80;99.90;;;;;;7610745;19;20014;-70
2022/10/29 22:58:09;;;;;;;16.38;6.20;;;12.80;99.90;;;;;;7602825;19;20022;-70
2022/10/29 23:00:41;;;;;;;16.42;5.45;;;12.70;99.90;;;;;;7609963;19;20021;-71
2022/10/29 23:03:13;;;;;;;18.50;6.00;;;12.70;99.90;;;;;;7607194;19;20014;-70
2022/10/29 23:05:56;;;;;;;19.27;5.78;;;12.60;99.90;;;;;;7591056;19;20022;-72
2022/10/29 23:08:30;;;;;;;18.58;5.45;;;12.60;99.90;;;;;;7611421;19;20025;-70
2022/10/29 23:11:09;;;;;;;30.85;6.38;;;12.50;99.90;;;;;;7607662;19;20056;-70
2022/10/29 23:13:41;;;;;;;22.73;5.97;;;12.50;99.90;;;;;;7604218;19;20049;-70
2022/10/29 23:16:14;;;;;;;12.23;5.93;;;12.40;99.90;;;;;;7605280;19;20051;-70
2022/10/29 23:18:48;;;;;;;20.90;5.43;;;12.40;99.90;;;;;;7610932;19;20019;-70
2022/10/29 23:21:20;;;;;;;22.35;5.57;;;12.30;99.90;;;;;;7607673;19;20021;-70
2022/10/29 23:23:53;;;;;;;13.82;6.00;;;12.30;99.90;;;;;;7610261;19;20014;-70
2022/10/29 23:26:25;;;;;;;21.40;5.40;;;12.30;99.90;;;;;;7606919;19;20029;-70
2022/10/29 23:28:58;;;;;;;24.20;5.80;;;12.20;99.90;;;;;;7605038;19;20040;-70
2022/10/29 23:31:30;;;;;;;19.30;5.90;;;12.20;99.90;;;;;;7602031;19;20029;-70
2022/10/29 23:34:02;;;;;;;12.75;5.90;;;12.10;99.90;;;;;;7608319;19;21071;-70
2022/10/29 23:36:35;;;;;;;19.92;5.93;;;12.00;99.90;;;;;;7607981;19;20018;-70
2022/10/29 23:39:07;;;;;;;20.50;5.25;;;12.00;99.90;;;;;;7597785;19;20006;-70
2022/10/29 23:41:39;;;;;;;17.95;5.97;;;12.10;99.90;;;;;;7609880;19;20030;-70
2022/10/29 23:44:11;;;;;;;22.30;5.85;;;12.00;99.90;;;;;;7605787;19;20010;-70
2022/10/29 23:46:42;;;;;;;20.15;6.25;;;12.00;99.90;;;;;;7604075;19;20019;-70
2022/10/29 23:49:15;;;;;;;15.13;5.22;;;11.90;99.90;;;;;;7607003;19;20014;-70
2022/10/29 23:51:47;;;;;;;16.23;5.43;;;11.90;99.90;;;;;;7610210;19;20774;-70
2022/10/29 23:54:19;;;;;;;17.02;5.82;;;11.90;99.90;;;;;;7590185;19;20369;-70
2022/10/29 23:56:51;;;;;;;17.50;5.60;;;11.90;99.90;;;;;;7608558;19;20029;-70
2022/10/29 23:59:23;;;;;;;19.58;5.35;;;11.90;99.90;;;;;;7605598;19;20034;-70
